Amelia, Virginia
Current Conditions -  °F | °C
As of 3:15 AM on Sunday 21 Dec 2014 (Local Time) from KW81 Reporting Station
Overcast Overcast  
Wind Chill:   Ceiling: 6500
Heat Index:   Visibility: 10mi
Dew Point: -1°   Wind: 0mph
Humidity: 87%   Direction: NA
Pressure: 30.28"   Gusts: NA
Location:  37.3498°N, 77.9661°W
Report Text: KW81 210815Z AUTO 00000KT 10SM OVC065 01/M01 A3028 RMK AO1 T00081011
Loading
Personal Weather Stations






























Interactive Weather Map New forecast layout! Learn more

10-Day Weather Forecast

Advertisements
Track Severe Weather on mobile